Time;durP1;ratioP1;P1;durP2;ratioP2;P2;SDS_P1;SDS_P2;PMS_P1;PMS_P2;Temp;Humidity;BMP_temperature;BMP_pressure;BME280_temperature;BME280_humidity;BME280_pressure;Samples;Min_cycle;Max_cycle;Signal;HPM_P1;HPM_P2
2022/02/18 00:00:20;;;;;;;2.33;1.25;;;20.30;39.20;;;;;;5113580;28;20138;-77
2022/02/18 00:02:46;;;;;;;1.55;1.10;;;20.40;39.20;;;;;;5113527;28;20048;-76
2022/02/18 00:05:11;;;;;;;2.50;1.10;;;20.40;39.20;;;;;;5113337;28;20054;-77
2022/02/18 00:07:37;;;;;;;2.65;1.30;;;20.30;39.10;;;;;;5112508;28;20050;-77
2022/02/18 00:10:04;;;;;;;2.50;1.17;;;20.30;39.20;;;;;;5113812;28;20063;-77
2022/02/18 00:12:29;;;;;;;1.83;1.05;;;20.30;39.10;;;;;;5113360;28;20055;-76
2022/02/18 00:14:55;;;;;;;1.83;1.00;;;20.30;39.20;;;;;;5113303;28;20047;-76
2022/02/18 00:17:22;;;;;;;1.42;1.05;;;20.40;39.20;;;;;;5113317;28;20053;-77
2022/02/18 00:19:50;;;;;;;1.42;1.05;;;20.40;39.20;;;;;;5112931;28;20151;-76
2022/02/18 00:22:16;;;;;;;2.78;1.42;;;20.40;39.20;;;;;;5094865;28;20486;-76
2022/02/18 00:24:41;;;;;;;3.00;1.00;;;20.40;39.10;;;;;;5113040;28;20054;-76
2022/02/18 00:27:07;;;;;;;2.35;0.90;;;20.40;39.10;;;;;;5111870;28;20078;-77
2022/02/18 00:29:35;;;;;;;2.13;1.30;;;20.40;39.20;;;;;;5113421;28;20447;-76
2022/02/18 00:32:02;;;;;;;2.30;1.20;;;20.30;39.70;;;;;;5113304;28;20089;-76
2022/02/18 00:34:31;;;;;;;;;;;20.30;39.10;;;;;;5113491;28;20407;-76
2022/02/18 00:36:57;;;;;;;2.15;1.15;;;20.30;39.10;;;;;;5113074;28;19915;-76
2022/02/18 00:39:22;;;;;;;2.40;1.17;;;20.40;39.20;;;;;;5112239;28;20055;-76
2022/02/18 00:41:49;;;;;;;2.47;1.20;;;20.30;39.10;;;;;;5094570;28;20407;-76
2022/02/18 00:44:17;;;;;;;1.83;1.00;;;20.40;39.20;;;;;;5094955;28;20051;-76
2022/02/18 00:46:45;;;;;;;1.05;0.70;;;20.40;39.20;;;;;;5111408;28;20417;-76
2022/02/18 00:49:10;;;;;;;1.98;1.10;;;20.30;39.10;;;;;;5111804;28;20100;-76
2022/02/18 00:51:36;;;;;;;1.80;0.90;;;20.30;39.40;;;;;;5094546;28;20048;-77
2022/02/18 00:54:02;;;;;;;2.60;1.02;;;20.40;39.10;;;;;;5111466;28;20056;-76
2022/02/18 00:56:28;;;;;;;2.30;1.13;;;20.40;39.10;;;;;;5094523;28;20055;-76
2022/02/18 00:58:54;;;;;;;1.73;1.00;;;20.40;39.10;;;;;;5112662;28;20479;-76
2022/02/18 01:01:22;;;;;;;3.67;1.30;;;20.40;39.10;;;;;;5113005;28;20513;-76
2022/02/18 01:03:48;;;;;;;2.25;1.13;;;20.40;39.10;;;;;;5112621;28;20109;-76
2022/02/18 01:06:14;;;;;;;2.15;1.13;;;20.40;39.10;;;;;;5112694;28;20091;-76
2022/02/18 01:08:40;;;;;;;2.35;1.20;;;20.30;39.10;;;;;;5112417;28;20105;-76
2022/02/18 01:11:05;;;;;;;2.83;1.15;;;20.30;39.10;;;;;;5077362;28;20064;-76
2022/02/18 01:13:34;;;;;;;2.75;1.33;;;20.40;39.10;;;;;;5094328;28;20058;-76
2022/02/18 01:16:02;;;;;;;2.47;1.30;;;20.30;39.10;;;;;;5092796;28;20064;-76
2022/02/18 01:18:28;;;;;;;2.35;1.05;;;20.40;39.10;;;;;;5112440;28;20097;-76
2022/02/18 01:20:54;;;;;;;2.67;1.20;;;20.40;39.60;;;;;;5110560;28;20491;-76
2022/02/18 01:23:19;;;;;;;2.13;1.10;;;20.40;39.10;;;;;;5112132;28;20051;-76
2022/02/18 01:25:46;;;;;;;3.17;1.30;;;20.40;39.10;;;;;;5110861;28;20134;-77
2022/02/18 01:28:12;;;;;;;1.67;0.93;;;20.40;39.10;;;;;;5111888;28;20500;-76
2022/02/18 01:30:37;;;;;;;2.10;1.10;;;20.40;39.10;;;;;;5112207;28;20063;-76
2022/02/18 01:33:03;;;;;;;1.55;0.85;;;20.40;39.00;;;;;;5112209;28;20055;-76
2022/02/18 01:35:32;;;;;;;2.20;1.10;;;20.40;39.00;;;;;;5093416;28;20063;-76
2022/02/18 01:37:57;;;;;;;1.67;0.93;;;20.40;39.00;;;;;;5093950;28;20483;-76
2022/02/18 01:40:23;;;;;;;2.00;0.90;;;20.40;39.10;;;;;;5091743;28;20048;-76
2022/02/18 01:42:49;;;;;;;2.40;0.88;;;20.40;39.10;;;;;;5093181;28;20105;-76
2022/02/18 01:45:16;;;;;;;2.70;1.08;;;20.40;39.10;;;;;;5093771;28;20440;-76
2022/02/18 01:47:42;;;;;;;1.33;0.93;;;20.40;39.00;;;;;;5110786;28;20052;-76
2022/02/18 01:50:08;;;;;;;1.50;0.98;;;20.40;39.00;;;;;;5093881;28;20055;-76
2022/02/18 01:52:42;;;;;;;2.10;1.00;;;20.40;39.10;;;;;;5115545;28;20070;-76
2022/02/18 01:55:10;;;;;;;1.90;0.75;;;20.40;39.10;;;;;;5115598;28;20376;-76
2022/02/18 01:57:52;;;;;;;2.50;1.05;;;20.40;39.10;;;;;;5114139;28;20052;-76
2022/02/18 02:00:27;;;;;;;1.85;0.93;;;20.40;39.00;;;;;;5097329;28;20104;-76
2022/02/18 02:02:53;;;;;;;1.77;1.00;;;20.40;39.00;;;;;;5097658;28;20364;-76
2022/02/18 02:05:20;;;;;;;1.77;1.13;;;20.30;39.00;;;;;;5097436;28;20055;-76
2022/02/18 02:07:46;;;;;;;2.05;1.08;;;20.40;39.10;;;;;;5115394;28;20058;-76
2022/02/18 02:10:14;;;;;;;2.13;1.05;;;20.40;39.10;;;;;;5114306;28;20051;-76
2022/02/18 02:13:06;;;;;;;2.53;1.10;;;20.30;39.00;;;;;;5080313;28;20054;-76
2022/02/18 02:15:35;;;;;;;1.95;1.08;;;20.30;39.00;;;;;;5093700;28;20079;-76
2022/02/18 02:18:02;;;;;;;2.25;1.00;;;20.40;39.10;;;;;;5094838;28;20052;-76
2022/02/18 02:20:29;;;;;;;2.05;1.30;;;20.40;39.10;;;;;;5097010;28;20051;-76
2022/02/18 02:22:54;;;;;;;3.20;1.08;;;20.40;39.10;;;;;;5096743;28;20449;-76
2022/02/18 02:25:20;;;;;;;1.83;1.02;;;20.40;39.10;;;;;;5095215;28;20054;-76
2022/02/18 02:27:47;;;;;;;1.73;0.93;;;20.40;39.10;;;;;;5097070;28;20487;-76
2022/02/18 02:30:15;;;;;;;1.42;0.70;;;20.40;39.00;;;;;;5097148;28;20048;-77
2022/02/18 02:32:41;;;;;;;2.13;0.85;;;20.40;39.00;;;;;;5096600;28;20487;-76
2022/02/18 02:35:07;;;;;;;2.35;0.93;;;20.40;39.10;;;;;;5097132;28;20051;-76
2022/02/18 02:37:33;;;;;;;2.63;1.20;;;20.40;39.60;;;;;;5094467;28;20174;-76
2022/02/18 02:39:59;;;;;;;2.17;0.70;;;20.40;39.00;;;;;;5096472;28;20077;-76
2022/02/18 02:42:35;;;;;;;2.10;1.05;;;20.40;39.00;;;;;;5096520;28;20056;-76
2022/02/18 02:45:07;;;;;;;3.20;1.50;;;20.40;39.00;;;;;;5096455;28;20048;-76
2022/02/18 02:47:33;;;;;;;2.05;0.98;;;20.40;39.00;;;;;;5096019;28;20066;-77
2022/02/18 02:50:16;;;;;;;2.03;1.00;;;20.40;39.00;;;;;;5096375;28;20138;-76
2022/02/18 02:52:43;;;;;;;2.40;1.13;;;20.40;39.00;;;;;;5113508;28;20055;-76
2022/02/18 02:55:13;;;;;;;1.50;0.98;;;20.40;39.50;;;;;;5096391;28;20048;-76
2022/02/18 02:57:43;;;;;;;1.67;1.02;;;20.40;39.00;;;;;;5079355;28;20059;-76
2022/02/18 03:00:11;;;;;;;2.30;1.02;;;20.40;39.00;;;;;;5096232;28;20495;-76
2022/02/18 03:02:38;;;;;;;2.15;0.95;;;20.40;39.00;;;;;;5113123;28;20062;-77
2022/02/18 03:05:06;;;;;;;2.03;1.08;;;20.40;39.00;;;;;;5093881;28;20048;-76
2022/02/18 03:07:32;;;;;;;3.17;1.10;;;20.40;38.90;;;;;;5112843;28;20058;-76
2022/02/18 03:10:06;;;;;;;2.35;1.17;;;20.40;38.90;;;;;;5095946;28;20056;-76
2022/02/18 03:12:32;;;;;;;2.40;1.27;;;20.40;38.90;;;;;;5096090;28;20162;-76
2022/02/18 03:15:06;;;;;;;2.08;1.02;;;20.40;38.90;;;;;;5094217;28;20048;-77
2022/02/18 03:17:34;;;;;;;1.77;1.00;;;20.40;38.80;;;;;;5095413;28;20483;-77
2022/02/18 03:20:29;;;;;;;2.38;1.10;;;20.40;38.80;;;;;;5098540;28;20078;-77
2022/02/18 03:22:55;;;;;;;1.45;1.00;;;20.50;38.90;;;;;;5095756;28;20419;-77
2022/02/18 03:25:21;;;;;;;1.85;1.17;;;20.50;38.80;;;;;;5114033;28;20039;-77
2022/02/18 03:27:47;;;;;;;1.45;0.80;;;20.50;38.90;;;;;;5095552;28;20083;-77
2022/02/18 03:30:16;;;;;;;2.03;0.90;;;20.50;39.40;;;;;;5094938;28;20048;-77
2022/02/18 03:32:42;;;;;;;1.98;0.80;;;20.50;39.40;;;;;;5094327;28;20143;-77
2022/02/18 03:35:08;;;;;;;1.63;0.98;;;20.50;38.80;;;;;;5078768;28;20120;-77
2022/02/18 03:37:37;;;;;;;2.00;0.90;;;20.50;38.80;;;;;;5095430;28;20078;-77
2022/02/18 03:40:14;;;;;;;2.05;1.23;;;20.50;38.90;;;;;;5112501;28;20051;-76
2022/02/18 03:42:41;;;;;;;1.50;0.95;;;20.50;38.90;;;;;;5095551;28;20165;-76
2022/02/18 03:45:07;;;;;;;1.55;0.90;;;20.50;39.40;;;;;;5095402;28;20138;-76
2022/02/18 03:47:33;;;;;;;2.80;1.10;;;20.50;38.80;;;;;;5095790;28;20051;-77
2022/02/18 03:50:00;;;;;;;1.67;0.80;;;20.50;38.80;;;;;;5095314;28;20377;-76
2022/02/18 03:52:27;;;;;;;2.28;1.00;;;20.50;38.70;;;;;;5095314;28;20063;-76
2022/02/18 03:54:53;;;;;;;2.03;0.77;;;20.60;38.80;;;;;;5113595;28;20043;-77
2022/02/18 03:57:20;;;;;;;2.30;1.13;;;20.60;38.80;;;;;;5095329;28;20483;-76
2022/02/18 03:59:47;;;;;;;1.35;0.80;;;20.60;38.80;;;;;;5095756;28;20058;-76
2022/02/18 04:02:12;;;;;;;1.35;0.93;;;20.60;38.70;;;;;;5095158;28;20399;-77
2022/02/18 04:04:38;;;;;;;2.28;1.15;;;20.60;38.70;;;;;;5095083;28;20039;-77
2022/02/18 04:07:16;;;;;;;3.13;0.85;;;20.60;38.70;;;;;;5095065;28;20506;-76
2022/02/18 04:09:49;;;;;;;3.60;1.33;;;20.60;38.60;;;;;;5094109;28;20043;-77
2022/02/18 04:12:20;;;;;;;2.35;1.13;;;20.60;38.60;;;;;;5095540;28;20051;-77
2022/02/18 04:14:48;;;;;;;1.55;0.90;;;20.70;38.60;;;;;;5093144;28;20059;-76
2022/02/18 04:17:17;;;;;;;1.50;0.90;;;20.70;38.60;;;;;;5095062;28;20081;-77
2022/02/18 04:19:47;;;;;;;1.88;1.00;;;20.70;38.60;;;;;;5095075;28;20048;-76
2022/02/18 04:22:19;;;;;;;1.83;1.00;;;20.70;38.60;;;;;;5094842;28;20058;-76
2022/02/18 04:24:45;;;;;;;1.92;1.00;;;20.70;38.60;;;;;;5078154;28;20048;-77
2022/02/18 04:27:11;;;;;;;1.70;1.20;;;20.70;38.50;;;;;;5113179;28;20052;-77
2022/02/18 04:29:37;;;;;;;1.75;0.95;;;20.70;38.50;;;;;;5095295;28;20138;-77
2022/02/18 04:32:04;;;;;;;1.60;1.00;;;20.70;38.50;;;;;;5112967;28;20181;-76
2022/02/18 04:34:29;;;;;;;1.27;0.80;;;20.70;38.50;;;;;;5112991;28;20044;-76
2022/02/18 04:36:55;;;;;;;1.60;0.90;;;20.70;38.50;;;;;;5113042;28;20445;-77
2022/02/18 04:39:21;;;;;;;1.60;0.80;;;20.70;38.60;;;;;;5112761;28;20404;-76
2022/02/18 04:41:47;;;;;;;1.17;0.73;;;20.70;38.60;;;;;;5113073;28;20052;-76
2022/02/18 04:44:14;;;;;;;1.98;1.13;;;20.70;38.60;;;;;;5112771;28;20084;-76
2022/02/18 04:46:40;;;;;;;2.08;0.93;;;20.70;38.60;;;;;;5113017;28;20139;-76
2022/02/18 04:49:05;;;;;;;1.45;1.00;;;20.70;38.60;;;;;;5111502;28;20061;-76
2022/02/18 04:51:31;;;;;;;1.08;0.70;;;20.70;38.60;;;;;;5112933;28;20051;-77
2022/02/18 04:53:57;;;;;;;1.75;0.90;;;20.70;38.50;;;;;;5112850;28;20094;-76
2022/02/18 04:56:22;;;;;;;1.88;0.88;;;20.70;38.50;;;;;;5093388;28;20060;-76
2022/02/18 04:58:48;;;;;;;2.10;1.27;;;20.70;38.50;;;;;;5094550;28;20055;-77
2022/02/18 05:01:16;;;;;;;1.65;1.00;;;20.70;38.50;;;;;;5094474;28;20075;-76
2022/02/18 05:03:41;;;;;;;1.65;1.00;;;20.70;38.60;;;;;;5113014;28;20052;-76
2022/02/18 05:06:09;;;;;;;2.70;1.30;;;20.70;38.50;;;;;;5094585;28;20048;-77
2022/02/18 05:08:36;;;;;;;2.03;0.90;;;20.70;38.60;;;;;;5112695;28;20043;-76
2022/02/18 05:11:03;;;;;;;2.50;1.25;;;20.70;38.50;;;;;;5112580;28;20483;-77
2022/02/18 05:13:29;;;;;;;1.55;0.90;;;20.70;38.50;;;;;;5112516;28;20095;-76
2022/02/18 05:15:54;;;;;;;3.13;1.15;;;20.70;38.50;;;;;;5092846;28;20115;-77
2022/02/18 05:18:20;;;;;;;2.08;0.82;;;20.70;38.50;;;;;;5112097;28;20060;-76
2022/02/18 05:20:47;;;;;;;1.45;0.80;;;20.70;38.50;;;;;;5111894;28;20440;-76
2022/02/18 05:23:14;;;;;;;2.03;1.05;;;20.70;38.50;;;;;;5109393;28;20059;-76
2022/02/18 05:25:40;;;;;;;2.15;0.90;;;20.70;38.50;;;;;;5114812;28;20411;-77
2022/02/18 05:28:07;;;;;;;0.95;0.70;;;20.70;38.50;;;;;;5096518;28;20055;-76
2022/02/18 05:30:34;;;;;;;2.15;0.70;;;20.70;38.50;;;;;;5115505;28;20521;-77
2022/02/18 05:33:00;;;;;;;1.17;0.77;;;20.70;38.50;;;;;;5115913;28;20058;-76
2022/02/18 05:35:25;;;;;;;1.30;0.70;;;20.70;38.50;;;;;;5097540;28;20059;-76
2022/02/18 05:37:51;;;;;;;0.80;0.63;;;20.70;38.50;;;;;;5098031;28;20059;-76
2022/02/18 05:40:17;;;;;;;1.08;0.70;;;20.70;38.50;;;;;;5112234;28;20138;-76
2022/02/18 05:42:42;;;;;;;1.92;0.90;;;20.70;38.50;;;;;;5115746;28;20063;-76
2022/02/18 05:45:11;;;;;;;1.25;0.80;;;20.70;38.50;;;;;;5097684;28;20110;-76
2022/02/18 05:47:39;;;;;;;1.90;0.98;;;20.70;38.40;;;;;;5115640;28;20043;-76
2022/02/18 05:50:08;;;;;;;2.53;0.90;;;20.70;38.40;;;;;;5115480;28;20074;-76
2022/02/18 05:52:35;;;;;;;1.27;0.90;;;20.70;38.50;;;;;;5115530;28;20122;-76
2022/02/18 05:55:01;;;;;;;2.70;0.90;;;20.70;38.50;;;;;;5097162;28;20040;-76
2022/02/18 05:57:27;;;;;;;1.48;0.80;;;20.70;38.50;;;;;;5115524;28;20047;-76
2022/02/18 05:59:52;;;;;;;0.98;0.85;;;20.70;38.50;;;;;;5115690;28;20138;-76
2022/02/18 06:02:18;;;;;;;2.92;0.95;;;20.70;38.50;;;;;;5114634;28;20135;-76
2022/02/18 06:04:43;;;;;;;1.90;0.90;;;20.70;38.40;;;;;;5115365;28;20082;-76
2022/02/18 06:07:09;;;;;;;1.98;1.00;;;20.70;38.40;;;;;;5114461;28;20051;-76
2022/02/18 06:09:34;;;;;;;1.55;0.80;;;20.70;38.50;;;;;;5115179;28;20087;-76
2022/02/18 06:12:00;;;;;;;0.82;0.82;;;20.70;38.50;;;;;;5115604;28;20051;-76
2022/02/18 06:14:25;;;;;;;1.60;0.80;;;20.70;38.50;;;;;;5115344;28;20047;-77
2022/02/18 06:16:51;;;;;;;1.98;0.80;;;20.70;38.50;;;;;;5115425;28;20055;-76
2022/02/18 06:19:17;;;;;;;1.65;0.80;;;20.70;38.50;;;;;;5114858;28;20064;-76
2022/02/18 06:21:43;;;;;;;1.77;0.93;;;20.70;38.50;;;;;;5115134;28;20083;-76
2022/02/18 06:24:09;;;;;;;1.80;0.90;;;20.70;39.00;;;;;;5114913;28;20444;-76
2022/02/18 06:26:36;;;;;;;1.13;0.95;;;20.70;38.40;;;;;;5114938;28;20518;-76
2022/02/18 06:29:02;;;;;;;1.40;0.95;;;20.70;38.40;;;;;;5114944;28;20089;-76
2022/02/18 06:31:28;;;;;;;1.52;0.82;;;20.70;38.40;;;;;;5097012;28;20051;-76
2022/02/18 06:33:53;;;;;;;1.33;0.73;;;20.80;38.40;;;;;;5114826;28;20491;-76
2022/02/18 06:36:19;;;;;;;1.40;0.80;;;20.70;38.30;;;;;;5114193;28;20047;-77
2022/02/18 06:38:44;;;;;;;1.88;0.80;;;20.80;38.40;;;;;;5113406;28;20048;-76
2022/02/18 06:41:12;;;;;;;0.98;0.73;;;20.80;38.40;;;;;;5094846;28;20052;-76
2022/02/18 06:43:41;;;;;;;1.65;0.88;;;20.80;38.40;;;;;;5096315;28;20059;-76
2022/02/18 06:46:07;;;;;;;1.17;1.08;;;20.80;38.40;;;;;;5096292;28;20075;-77
2022/02/18 06:48:34;;;;;;;1.50;0.80;;;20.80;38.40;;;;;;5114665;28;20487;-76
2022/02/18 06:51:00;;;;;;;1.35;1.05;;;20.80;38.40;;;;;;5114642;28;20051;-76
2022/02/18 06:53:25;;;;;;;1.55;0.90;;;20.70;38.40;;;;;;5114791;28;20062;-76
2022/02/18 06:55:52;;;;;;;2.10;1.05;;;20.80;38.40;;;;;;5114530;28;20139;-77
2022/02/18 06:58:18;;;;;;;3.08;1.10;;;20.80;38.40;;;;;;5114588;28;20062;-76
2022/02/18 07:00:44;;;;;;;2.55;1.08;;;20.80;38.40;;;;;;5114170;28;20051;-76
2022/02/18 07:03:10;;;;;;;1.45;0.90;;;20.80;38.40;;;;;;5114314;28;20942;-76
2022/02/18 07:05:36;;;;;;;1.48;0.82;;;20.80;38.40;;;;;;5114196;28;20491;-76
2022/02/18 07:08:02;;;;;;;1.95;1.02;;;20.80;38.40;;;;;;5093648;28;20059;-76
2022/02/18 07:10:28;;;;;;;2.22;0.82;;;20.80;38.40;;;;;;5096085;28;20060;-76
2022/02/18 07:12:55;;;;;;;2.05;1.00;;;20.80;38.30;;;;;;5114317;28;20120;-76
2022/02/18 07:15:21;;;;;;;2.90;0.70;;;20.80;38.30;;;;;;5095924;28;20052;-77
2022/02/18 07:17:49;;;;;;;2.85;0.98;;;20.80;38.30;;;;;;5114251;28;20058;-77
2022/02/18 07:20:16;;;;;;;1.83;1.00;;;20.80;38.40;;;;;;5095379;28;20059;-77
2022/02/18 07:22:42;;;;;;;1.08;0.63;;;20.80;38.30;;;;;;5095839;28;20048;-76
2022/02/18 07:25:08;;;;;;;1.77;0.80;;;20.80;38.30;;;;;;5114041;28;20570;-76
2022/02/18 07:27:34;;;;;;;1.40;0.80;;;20.80;38.30;;;;;;5112725;28;20089;-76
2022/02/18 07:30:00;;;;;;;1.25;0.73;;;20.90;38.40;;;;;;5095654;28;20098;-76
2022/02/18 07:32:26;;;;;;;1.90;0.93;;;20.80;38.30;;;;;;5094506;28;20048;-76
2022/02/18 07:34:52;;;;;;;1.42;0.80;;;20.90;38.30;;;;;;5113963;28;20066;-76
2022/02/18 07:37:17;;;;;;;1.45;0.85;;;20.90;38.30;;;;;;5113822;28;20081;-76
2022/02/18 07:39:43;;;;;;;0.85;0.80;;;20.90;38.80;;;;;;5114067;28;20051;-76
2022/02/18 07:42:09;;;;;;;1.60;0.95;;;20.90;38.20;;;;;;5112510;28;20156;-76
2022/02/18 07:44:35;;;;;;;1.42;0.93;;;20.90;38.20;;;;;;5113664;28;20043;-77
2022/02/18 07:47:02;;;;;;;1.10;0.82;;;20.90;38.30;;;;;;5094544;28;20051;-77
2022/02/18 07:49:27;;;;;;;1.95;0.90;;;20.90;38.20;;;;;;5112489;28;20135;-76
2022/02/18 07:51:53;;;;;;;2.15;0.85;;;20.90;38.20;;;;;;5113770;28;20495;-76
2022/02/18 07:54:18;;;;;;;1.70;0.90;;;20.90;38.70;;;;;;5113325;28;20407;-77
2022/02/18 07:56:44;;;;;;;1.88;1.02;;;20.90;38.20;;;;;;5095120;28;20051;-76
2022/02/18 07:59:10;;;;;;;1.38;0.80;;;20.90;38.20;;;;;;5112206;28;20048;-76
2022/02/18 08:01:36;;;;;;;1.75;0.93;;;20.90;38.20;;;;;;5113751;28;20055;-77
2022/02/18 08:04:04;;;;;;;1.50;0.80;;;20.90;38.20;;;;;;5113894;28;20480;-76
2022/02/18 08:06:30;;;;;;;2.10;1.02;;;20.90;38.20;;;;;;5094896;28;20539;-76
2022/02/18 08:08:56;;;;;;;1.80;0.90;;;20.90;38.20;;;;;;5113425;28;20438;-76
2022/02/18 08:11:22;;;;;;;1.65;1.10;;;20.90;38.20;;;;;;5113572;28;20056;-76
2022/02/18 08:13:48;;;;;;;1.88;0.90;;;20.90;38.20;;;;;;5077894;28;20055;-76
2022/02/18 08:16:15;;;;;;;2.55;1.00;;;20.90;38.20;;;;;;5113154;28;20062;-76
2022/02/18 08:18:43;;;;;;;1.58;0.88;;;20.90;38.20;;;;;;5094632;28;20059;-76
2022/02/18 08:21:12;;;;;;;2.47;1.23;;;20.90;38.20;;;;;;5113033;28;20502;-76
2022/02/18 08:23:39;;;;;;;1.60;0.90;;;20.90;38.20;;;;;;5113024;28;20047;-77
2022/02/18 08:26:05;;;;;;;1.08;0.80;;;20.90;38.10;;;;;;5113096;28;21502;-76
2022/02/18 08:28:32;;;;;;;2.65;0.90;;;20.90;38.20;;;;;;5113470;28;20475;-76
2022/02/18 08:30:57;;;;;;;1.55;0.93;;;20.90;38.20;;;;;;5111757;28;20101;-77
2022/02/18 08:33:23;;;;;;;0.82;0.75;;;20.90;38.20;;;;;;5077446;28;20154;-76
2022/02/18 08:35:49;;;;;;;1.80;0.95;;;20.90;38.20;;;;;;5110899;28;20127;-76
2022/02/18 08:38:14;;;;;;;1.65;0.82;;;20.90;38.20;;;;;;5092661;28;20063;-77
2022/02/18 08:40:40;;;;;;;1.80;0.85;;;20.90;38.20;;;;;;5112511;28;20059;-76
2022/02/18 08:43:06;;;;;;;1.27;0.85;;;20.90;38.10;;;;;;5110123;28;20105;-76
2022/02/18 08:45:33;;;;;;;2.03;1.10;;;20.90;38.20;;;;;;5109272;28;20086;-76
2022/02/18 08:47:59;;;;;;;1.73;0.88;;;20.90;38.10;;;;;;5112855;28;20511;-76
2022/02/18 08:50:25;;;;;;;0.80;0.60;;;20.90;38.10;;;;;;5094540;28;20456;-76
2022/02/18 08:52:51;;;;;;;1.27;0.70;;;20.90;38.10;;;;;;5112824;28;20055;-76
2022/02/18 08:55:16;;;;;;;2.28;1.08;;;20.90;38.10;;;;;;5113105;28;20052;-76
2022/02/18 08:57:46;;;;;;;1.80;1.00;;;20.90;38.10;;;;;;5111358;28;20055;-76
2022/02/18 09:00:13;;;;;;;1.75;0.73;;;21.00;38.10;;;;;;5114679;28;20044;-76
2022/02/18 09:02:41;;;;;;;2.58;1.13;;;21.00;38.10;;;;;;5116394;28;20055;-76
2022/02/18 09:05:07;;;;;;;1.60;0.80;;;21.00;38.10;;;;;;5115931;28;20059;-76
2022/02/18 09:07:33;;;;;;;1.70;0.98;;;21.00;38.10;;;;;;5097820;28;20058;-77
2022/02/18 09:09:59;;;;;;;3.90;0.93;;;21.00;38.10;;;;;;5116103;28;20043;-76
2022/02/18 09:12:25;;;;;;;1.88;0.93;;;20.90;38.00;;;;;;5116422;28;20051;-76
2022/02/18 09:14:51;;;;;;;1.45;0.82;;;20.90;38.00;;;;;;5095861;28;20056;-76
2022/02/18 09:17:25;;;;;;;2.35;1.00;;;20.90;38.00;;;;;;5116343;28;20425;-76
2022/02/18 09:19:52;;;;;;;1.20;0.80;;;20.90;38.00;;;;;;5115814;28;20100;-76
2022/02/18 09:22:20;;;;;;;1.80;1.23;;;20.90;38.00;;;;;;5097547;28;20087;-76
2022/02/18 09:24:48;;;;;;;1.55;0.90;;;20.90;38.00;;;;;;5115888;28;20059;-77
2022/02/18 09:27:14;;;;;;;1.15;0.85;;;20.90;38.00;;;;;;5116175;28;20052;-76
2022/02/18 09:29:39;;;;;;;1.75;0.70;;;21.00;38.00;;;;;;5115786;28;20061;-76
2022/02/18 09:32:05;;;;;;;2.08;0.80;;;21.00;38.00;;;;;;5115796;28;20047;-76
2022/02/18 09:34:31;;;;;;;2.33;1.10;;;20.90;38.00;;;;;;5114623;28;20489;-76
2022/02/18 09:36:58;;;;;;;1.00;0.70;;;21.00;38.00;;;;;;5095982;28;20495;-76
2022/02/18 09:39:24;;;;;;;3.28;1.20;;;20.90;38.00;;;;;;5115754;28;20052;-76
2022/02/18 09:41:49;;;;;;;1.75;0.65;;;20.90;38.00;;;;;;5097391;28;20056;-76
2022/02/18 09:44:17;;;;;;;3.40;0.88;;;21.00;38.00;;;;;;5115991;28;20058;-77
2022/02/18 09:46:45;;;;;;;1.98;1.00;;;20.90;38.00;;;;;;5115820;28;20143;-76
2022/02/18 09:49:11;;;;;;;2.10;0.90;;;20.90;38.00;;;;;;5097250;28;20047;-76
2022/02/18 09:51:40;;;;;;;1.85;0.98;;;21.00;38.00;;;;;;5115546;28;20074;-76
2022/02/18 09:54:06;;;;;;;1.30;0.90;;;21.00;38.00;;;;;;5115438;28;20059;-76
2022/02/18 09:56:33;;;;;;;1.13;0.70;;;21.00;38.00;;;;;;5115502;28;20052;-76
2022/02/18 09:59:01;;;;;;;2.25;1.15;;;21.00;38.00;;;;;;5080202;28;20096;-77
2022/02/18 10:01:26;;;;;;;4.30;1.08;;;21.00;38.00;;;;;;5115695;28;20081;-76
2022/02/18 10:03:52;;;;;;;2.35;0.98;;;21.00;38.00;;;;;;5115196;28;20097;-76
2022/02/18 10:06:17;;;;;;;1.67;0.98;;;20.90;38.00;;;;;;5095686;28;20159;-77
2022/02/18 10:08:50;;;;;;;1.05;0.90;;;20.90;38.00;;;;;;5113885;28;20075;-76
2022/02/18 10:11:17;;;;;;;2.20;0.80;;;21.00;38.10;;;;;;5096329;28;20065;-77
2022/02/18 10:13:47;;;;;;;2.63;1.00;;;20.90;38.00;;;;;;5115185;28;20051;-77
2022/02/18 10:16:18;;;;;;;1.73;1.08;;;20.90;38.10;;;;;;5115207;28;20410;-76
2022/02/18 10:18:58;;;;;;;1.60;0.82;;;20.90;38.00;;;;;;5095058;28;20411;-77
2022/02/18 10:21:29;;;;;;;2.72;0.80;;;20.90;38.00;;;;;;5114934;28;20047;-77
2022/02/18 10:24:36;;;;;;;2.40;1.00;;;20.90;38.00;;;;;;5115015;28;20051;-76
2022/02/18 10:27:02;;;;;;;1.92;0.90;;;20.90;38.00;;;;;;5100714;28;20475;-76
2022/02/18 10:29:36;;;;;;;1.63;0.80;;;21.00;38.00;;;;;;5096435;28;20048;-76
2022/02/18 10:32:11;;;;;;;1.60;1.00;;;20.90;38.00;;;;;;5113836;28;20449;-76
2022/02/18 10:34:56;;;;;;;1.80;0.93;;;20.90;38.00;;;;;;5096405;28;20055;-77
2022/02/18 10:37:24;;;;;;;1.52;1.10;;;20.90;38.00;;;;;;5114924;28;20498;-76
2022/02/18 10:40:02;;;;;;;1.55;0.98;;;20.90;38.00;;;;;;5096519;28;20043;-76
2022/02/18 10:42:28;;;;;;;2.00;0.82;;;20.90;38.00;;;;;;5079906;28;20058;-76
2022/02/18 10:45:13;;;;;;;2.58;1.00;;;21.00;38.00;;;;;;5114563;28;20135;-76
2022/02/18 10:47:40;;;;;;;2.53;0.80;;;20.90;38.00;;;;;;5096179;28;20112;-77
2022/02/18 10:50:26;;;;;;;1.13;0.88;;;21.00;38.00;;;;;;5096600;28;20138;-76
2022/02/18 10:53:15;;;;;;;1.80;0.85;;;21.00;38.00;;;;;;5114632;28;20128;-76
2022/02/18 10:55:56;;;;;;;1.92;1.00;;;21.00;38.00;;;;;;5114254;28;20050;-76
2022/02/18 10:58:40;;;;;;;2.60;1.10;;;21.00;37.90;;;;;;5094606;28;20069;-76
2022/02/18 11:01:14;;;;;;;2.08;0.90;;;21.00;37.90;;;;;;5113132;28;20052;-76
2022/02/18 11:03:44;;;;;;;1.65;0.98;;;21.00;37.90;;;;;;5094847;28;20101;-76
2022/02/18 11:06:33;;;;;;;2.88;1.45;;;21.00;37.90;;;;;;5114273;28;20130;-76
2022/02/18 11:09:01;;;;;;;3.83;0.90;;;21.00;37.90;;;;;;5112900;28;20483;-76
2022/02/18 11:11:39;;;;;;;1.83;0.90;;;21.00;37.90;;;;;;5095905;28;20495;-76
2022/02/18 11:14:07;;;;;;;1.30;1.10;;;21.00;37.90;;;;;;5113929;28;20055;-76
2022/02/18 11:16:38;;;;;;;2.70;0.90;;;21.00;37.90;;;;;;5096102;28;20048;-76
2022/02/18 11:19:04;;;;;;;1.77;0.85;;;21.00;37.90;;;;;;5095683;28;20491;-76
2022/02/18 11:21:30;;;;;;;2.40;0.98;;;21.00;37.90;;;;;;5113980;28;20059;-76
2022/02/18 11:23:58;;;;;;;1.98;1.05;;;21.00;37.90;;;;;;5113878;28;20044;-76
2022/02/18 11:26:27;;;;;;;1.65;0.80;;;21.00;37.90;;;;;;5113911;28;20399;-76
2022/02/18 11:28:53;;;;;;;1.77;0.90;;;21.00;37.90;;;;;;5114029;28;20097;-76
2022/02/18 11:31:25;;;;;;;2.53;0.90;;;21.00;37.90;;;;;;5113861;28;20402;-76
2022/02/18 11:34:23;;;;;;;3.20;1.20;;;21.00;37.90;;;;;;5114095;28;20091;-76
2022/02/18 11:37:10;;;;;;;2.67;1.00;;;21.00;37.90;;;;;;5113757;28;20294;-77
2022/02/18 11:39:55;;;;;;;2.10;1.00;;;21.00;37.90;;;;;;5113723;28;20124;-76
2022/02/18 11:42:42;;;;;;;2.40;1.08;;;21.00;37.90;;;;;;5113812;28;20453;-76
2022/02/18 11:45:18;;;;;;;3.05;1.05;;;21.00;37.90;;;;;;5113692;28;20507;-76
2022/02/18 11:47:46;;;;;;;2.63;1.02;;;20.90;37.90;;;;;;5113817;28;20537;-76
2022/02/18 11:50:17;;;;;;;1.70;0.88;;;21.00;37.90;;;;;;5114021;28;20085;-76
2022/02/18 11:52:45;;;;;;;2.22;1.10;;;21.00;37.90;;;;;;5113595;28;20507;-76
2022/02/18 11:55:31;;;;;;;1.92;1.02;;;21.00;37.90;;;;;;5113584;28;20046;-76
2022/02/18 11:58:18;;;;;;;1.13;0.80;;;20.90;37.90;;;;;;5092429;28;20044;-74
2022/02/18 12:00:46;;;;;;;1.42;0.90;;;21.00;38.00;;;;;;5110389;28;20056;-74
2022/02/18 12:03:23;;;;;;;1.77;0.90;;;20.90;37.90;;;;;;5093175;28;20044;-74
2022/02/18 12:06:09;;;;;;;1.58;1.00;;;21.00;38.00;;;;;;5113098;28;20043;-74
2022/02/18 12:08:42;;;;;;;1.15;0.70;;;20.90;38.00;;;;;;5113474;28;20044;-74
2022/02/18 12:11:13;;;;;;;1.27;0.73;;;20.90;38.00;;;;;;5113725;28;20052;-74
2022/02/18 12:13:56;;;;;;;1.50;0.90;;;21.00;38.00;;;;;;5113676;28;20059;-74
2022/02/18 12:16:24;;;;;;;2.78;1.20;;;20.90;38.00;;;;;;5094169;28;20082;-75
2022/02/18 12:19:09;;;;;;;1.25;0.90;;;20.90;38.00;;;;;;5093962;28;20063;-77
2022/02/18 12:21:54;;;;;;;1.63;1.10;;;20.90;38.00;;;;;;5113593;28;20503;-77
2022/02/18 12:24:38;;;;;;;2.10;1.00;;;21.00;38.00;;;;;;5113067;28;20039;-77
2022/02/18 12:27:24;;;;;;;2.28;0.98;;;20.90;38.00;;;;;;5095207;28;20403;-77
2022/02/18 12:29:54;;;;;;;2.05;0.82;;;21.00;38.00;;;;;;5110310;28;20051;-77
2022/02/18 12:32:20;;;;;;;1.95;0.90;;;20.90;37.90;;;;;;5095439;28;20058;-77
2022/02/18 12:34:59;;;;;;;2.03;1.13;;;20.90;38.00;;;;;;5112629;28;20079;-74
2022/02/18 12:37:25;;;;;;;2.17;1.10;;;20.90;38.00;;;;;;5094714;28;20066;-74
2022/02/18 12:39:54;;;;;;;1.38;1.00;;;20.90;38.00;;;;;;5113036;28;20048;-74
2022/02/18 12:42:23;;;;;;;1.85;0.85;;;20.90;38.00;;;;;;5094667;28;20052;-74
2022/02/18 12:44:53;;;;;;;1.50;1.00;;;20.90;38.00;;;;;;5094731;28;20480;-74
2022/02/18 12:47:25;;;;;;;1.60;0.90;;;20.90;38.00;;;;;;5113093;28;20058;-74
2022/02/18 12:49:53;;;;;;;2.00;0.90;;;20.90;38.00;;;;;;5112890;28;20059;-74
2022/02/18 12:52:20;;;;;;;3.63;1.20;;;20.90;38.00;;;;;;5111526;28;20079;-74
2022/02/18 12:54:59;;;;;;;2.40;0.95;;;20.90;38.00;;;;;;5112703;28;20055;-74